createdAt,value
2024-01-28T00:01:51.257Z,6.13
2024-01-28T00:04:19.413Z,5.90
2024-01-28T00:06:47.444Z,5.63
2024-01-28T00:09:15.594Z,6.00
2024-01-28T00:11:44.227Z,6.40
2024-01-28T00:14:12.292Z,6.30
2024-01-28T00:16:40.306Z,5.60
2024-01-28T00:19:10.740Z,4.67
2024-01-28T00:21:38.934Z,5.50
2024-01-28T00:24:08.409Z,5.30
2024-01-28T00:26:39.108Z,5.33
2024-01-28T00:29:07.145Z,5.07
2024-01-28T00:31:35.317Z,4.13
2024-01-28T00:34:03.859Z,4.40
2024-01-28T00:36:33.470Z,4.40
2024-01-28T00:39:01.401Z,5.03
2024-01-28T00:41:30.756Z,5.40
2024-01-28T00:43:59.333Z,4.47
2024-01-28T00:46:27.441Z,4.47
2024-01-28T00:48:55.430Z,4.70
2024-01-28T00:51:23.975Z,4.60
2024-01-28T00:53:53.288Z,4.67
2024-01-28T00:56:21.408Z,5.43
2024-01-28T00:58:49.321Z,4.50
2024-01-28T01:01:17.938Z,3.90
2024-01-28T01:03:46.100Z,5.10
2024-01-28T01:06:14.230Z,4.30
2024-01-28T01:08:42.252Z,5.23
2024-01-28T01:11:12.828Z,4.70
2024-01-28T01:13:40.807Z,5.23
2024-01-28T01:16:08.994Z,4.83
2024-01-28T01:18:36.982Z,4.73
2024-01-28T01:21:05.232Z,5.10
2024-01-28T01:23:33.553Z,4.67
2024-01-28T01:26:01.556Z,5.07
2024-01-28T01:28:33.824Z,5.10
2024-01-28T01:31:03.600Z,4.87
2024-01-28T01:33:31.717Z,5.00
2024-01-28T01:35:59.765Z,5.20
2024-01-28T01:38:27.696Z,5.60
2024-01-28T01:40:55.578Z,4.87
2024-01-28T01:43:24.397Z,5.03
2024-01-28T01:45:54.461Z,4.50
2024-01-28T01:48:22.715Z,4.90
2024-01-28T01:50:51.421Z,4.90
2024-01-28T01:53:19.818Z,4.53
2024-01-28T01:55:47.927Z,5.33
2024-01-28T01:58:16.261Z,4.73
2024-01-28T02:00:44.405Z,5.40
2024-01-28T02:03:14.688Z,4.97
2024-01-28T02:05:42.857Z,4.73
2024-01-28T02:08:11.351Z,5.67
2024-01-28T02:10:39.377Z,6.07
2024-01-28T02:13:08.207Z,5.83
2024-01-28T02:15:39.883Z,4.90
2024-01-28T02:18:08.793Z,5.90
2024-01-28T02:20:38.218Z,6.03
2024-01-28T02:23:07.147Z,5.97
2024-01-28T02:25:36.627Z,5.23
2024-01-28T02:28:04.679Z,5.03
2024-01-28T02:30:34.229Z,5.17
2024-01-28T02:33:02.406Z,5.50
2024-01-28T02:35:30.478Z,5.13
2024-01-28T02:37:58.529Z,4.67
2024-01-28T02:40:26.540Z,4.80
2024-01-28T02:42:59.177Z,5.53
2024-01-28T02:45:27.235Z,5.70
2024-01-28T02:47:55.158Z,5.17
2024-01-28T02:50:23.099Z,5.87
2024-01-28T02:52:51.082Z,5.20
2024-01-28T02:55:19.061Z,5.57
2024-01-28T02:57:47.080Z,5.70
2024-01-28T03:00:18.701Z,6.13
2024-01-28T03:02:46.765Z,5.00
2024-01-28T03:05:14.834Z,5.80
2024-01-28T03:07:42.793Z,5.10
2024-01-28T03:10:11.088Z,5.07
2024-01-28T03:12:39.169Z,5.70
2024-01-28T03:15:08.367Z,5.47
2024-01-28T03:17:38.219Z,5.37
2024-01-28T03:20:07.342Z,4.90
2024-01-28T03:22:35.379Z,5.33
2024-01-28T03:25:03.383Z,5.13
2024-01-28T03:27:31.671Z,5.43
2024-01-28T03:29:59.750Z,4.80
2024-01-28T03:32:27.690Z,5.70
2024-01-28T03:34:57.126Z,5.10
2024-01-28T03:37:25.628Z,5.00
2024-01-28T03:39:53.548Z,5.23
2024-01-28T03:42:21.532Z,5.30
2024-01-28T03:44:49.456Z,4.83
2024-01-28T03:47:17.528Z,4.80
2024-01-28T03:49:45.610Z,5.23
2024-01-28T03:52:15.016Z,5.43
2024-01-28T03:54:43.371Z,5.43
2024-01-28T03:57:11.360Z,5.63
2024-01-28T03:59:41.669Z,5.67
2024-01-28T04:02:10.101Z,4.83
2024-01-28T04:04:38.249Z,5.23
2024-01-28T04:07:06.351Z,6.10
2024-01-28T04:09:35.812Z,5.53
2024-01-28T04:12:05.638Z,5.47
2024-01-28T04:14:33.705Z,5.20
2024-01-28T04:17:01.729Z,5.23
2024-01-28T04:19:29.749Z,5.27
2024-01-28T04:21:57.787Z,5.50
2024-01-28T04:24:25.935Z,4.87
2024-01-28T04:26:56.774Z,4.97
2024-01-28T04:29:24.704Z,5.00
2024-01-28T04:31:54.626Z,5.03
2024-01-28T04:34:23.910Z,4.97
2024-01-28T04:36:52.042Z,5.00
2024-01-28T04:39:20.515Z,4.10
2024-01-28T04:41:48.593Z,4.23
2024-01-28T04:44:17.942Z,4.70
2024-01-28T04:46:46.542Z,4.73
2024-01-28T04:49:15.413Z,5.77
2024-01-28T04:51:43.411Z,4.50
2024-01-28T04:54:11.492Z,4.47
2024-01-28T04:56:39.405Z,5.30
2024-01-28T04:59:07.422Z,5.13
2024-01-28T05:01:36.759Z,4.80
2024-01-28T05:04:05.610Z,4.70
2024-01-28T05:06:37.150Z,4.97
2024-01-28T05:09:07.416Z,5.07
2024-01-28T05:11:36.105Z,4.70
2024-01-28T05:14:05.465Z,4.50
2024-01-28T05:16:33.453Z,4.77
2024-01-28T05:19:03.722Z,4.57
2024-01-28T05:21:32.001Z,4.87
2024-01-28T05:24:01.639Z,4.07
2024-01-28T05:26:29.588Z,4.73
2024-01-28T05:28:58.957Z,4.50
2024-01-28T05:31:26.988Z,3.70
2024-01-28T05:33:55.296Z,3.83
2024-01-28T05:36:24.751Z,5.40
2024-01-28T05:38:52.694Z,4.10
2024-01-28T05:41:20.602Z,4.20
2024-01-28T05:43:48.547Z,4.63
2024-01-28T05:46:16.658Z,4.63
2024-01-28T05:48:44.802Z,4.33
2024-01-28T05:51:13.255Z,4.77
2024-01-28T05:53:42.783Z,4.80
2024-01-28T05:56:11.164Z,4.30
2024-01-28T05:58:39.111Z,4.27
2024-01-28T06:01:09.794Z,4.63
2024-01-28T06:03:38.466Z,4.43
2024-01-28T06:06:07.246Z,5.10
2024-01-28T06:08:35.450Z,3.90
2024-01-28T06:11:04.976Z,4.03
2024-01-28T06:13:33.007Z,3.77
2024-01-28T06:16:01.528Z,3.90
2024-01-28T06:18:29.553Z,4.10
2024-01-28T06:20:57.625Z,3.47
2024-01-28T06:23:25.546Z,4.00
2024-01-28T06:25:53.459Z,3.47
2024-01-28T06:28:22.772Z,3.17
2024-01-28T06:30:50.778Z,3.30
2024-01-28T06:33:18.877Z,3.13
2024-01-28T06:35:46.902Z,3.10
2024-01-28T06:38:14.898Z,3.93
2024-01-28T06:40:42.957Z,3.43
2024-01-28T06:43:11.408Z,3.07
2024-01-28T06:45:40.754Z,3.00
2024-01-28T06:48:09.311Z,3.27
2024-01-28T06:50:37.271Z,2.87
2024-01-28T06:53:06.261Z,3.93
2024-01-28T06:55:34.506Z,3.17
2024-01-28T06:58:02.680Z,3.10
2024-01-28T07:00:30.849Z,2.60
2024-01-28T07:03:00.522Z,2.87
2024-01-28T07:05:29.600Z,3.20
2024-01-28T07:07:57.698Z,3.20
2024-01-28T07:10:28.347Z,3.00
2024-01-28T07:12:57.375Z,2.97
2024-01-28T07:15:25.577Z,3.20
2024-01-28T07:17:53.759Z,3.00
2024-01-28T07:20:23.231Z,3.03
2024-01-28T07:22:51.171Z,3.20
2024-01-28T07:25:19.158Z,2.73
2024-01-28T07:27:47.935Z,3.00
2024-01-28T07:30:16.547Z,2.57
2024-01-28T07:32:44.934Z,2.87
2024-01-28T07:35:13.077Z,2.70
2024-01-28T07:37:42.305Z,2.90
2024-01-28T07:40:11.462Z,3.17
2024-01-28T07:42:40.179Z,3.10
2024-01-28T07:45:10.938Z,3.43
2024-01-28T07:47:43.042Z,3.30
2024-01-28T07:50:12.826Z,2.77
2024-01-28T07:52:44.722Z,2.97
2024-01-28T07:55:12.949Z,3.27
2024-01-28T07:57:40.900Z,3.30
2024-01-28T08:00:11.331Z,3.23
2024-01-28T08:02:42.105Z,2.93
2024-01-28T08:05:10.376Z,3.20
2024-01-28T08:07:38.637Z,2.17
2024-01-28T08:10:08.675Z,3.23
2024-01-28T08:12:36.658Z,3.00
2024-01-28T08:15:05.051Z,2.97
2024-01-28T08:17:33.063Z,2.93
2024-01-28T08:20:00.989Z,3.10
2024-01-28T08:22:28.942Z,3.10
2024-01-28T08:24:57.011Z,3.03
2024-01-28T08:27:29.277Z,3.03
2024-01-28T08:29:57.274Z,2.73
2024-01-28T08:32:25.165Z,2.47
2024-01-28T08:34:53.375Z,2.37
2024-01-28T08:37:23.432Z,2.87
2024-01-28T08:39:51.408Z,2.73
2024-01-28T08:42:20.366Z,2.57
2024-01-28T08:44:49.980Z,2.53
2024-01-28T08:47:18.078Z,2.53
2024-01-28T08:49:46.101Z,2.10
2024-01-28T08:52:14.111Z,2.80
2024-01-28T08:54:45.530Z,3.07
2024-01-28T08:57:13.962Z,2.87
2024-01-28T08:59:41.934Z,3.63
2024-01-28T09:02:11.227Z,3.20
2024-01-28T09:04:39.367Z,2.90
2024-01-28T09:07:07.768Z,3.07
2024-01-28T09:09:35.792Z,2.93
2024-01-28T09:12:04.608Z,2.80
2024-01-28T09:14:32.597Z,3.23
2024-01-28T09:17:00.534Z,2.90
2024-01-28T09:19:29.901Z,2.37
2024-01-28T09:21:58.053Z,3.13
2024-01-28T09:24:26.103Z,3.03
2024-01-28T09:26:54.075Z,2.80
2024-01-28T09:29:23.615Z,4.07
2024-01-28T09:31:52.426Z,3.20
2024-01-28T09:34:20.582Z,3.30
2024-01-28T09:36:50.088Z,2.73
2024-01-28T09:39:19.138Z,2.97
2024-01-28T09:42:01.012Z,2.90
2024-01-28T09:44:30.473Z,3.27
2024-01-28T09:46:58.721Z,2.77
2024-01-28T09:49:29.012Z,2.60
2024-01-28T09:51:58.600Z,2.90
2024-01-28T09:54:26.637Z,2.50
2024-01-28T09:56:55.360Z,2.83
2024-01-28T09:59:23.592Z,2.53
2024-01-28T10:01:53.683Z,2.50
2024-01-28T10:04:21.769Z,2.67
2024-01-28T10:06:49.949Z,3.10
2024-01-28T10:09:19.324Z,2.50
2024-01-28T10:11:47.492Z,2.63
2024-01-28T10:14:15.477Z,2.13
2024-01-28T10:16:45.747Z,2.80
2024-01-28T10:19:16.108Z,4.10
2024-01-28T10:21:44.935Z,3.63
2024-01-28T10:24:21.070Z,2.87
2024-01-28T10:26:51.116Z,2.87
2024-01-28T10:29:20.174Z,3.00
2024-01-28T10:31:48.261Z,3.00
2024-01-28T10:34:16.227Z,2.73
2024-01-28T10:36:49.750Z,2.30
2024-01-28T10:39:21.983Z,2.70
2024-01-28T10:41:55.450Z,2.40
2024-01-28T10:44:24.373Z,2.10
2024-01-28T10:46:55.711Z,3.00
2024-01-28T10:49:31.750Z,2.60
2024-01-28T10:52:00.092Z,2.50
2024-01-28T10:54:29.328Z,2.10
2024-01-28T10:56:59.790Z,2.10
2024-01-28T10:59:29.547Z,3.53
2024-01-28T11:01:57.841Z,2.67
2024-01-28T11:04:26.190Z,2.53
2024-01-28T11:06:54.261Z,2.13
2024-01-28T11:09:22.466Z,2.37
2024-01-28T11:11:50.778Z,2.47
2024-01-28T11:14:20.461Z,2.30
2024-01-28T11:16:48.998Z,2.63
2024-01-28T11:19:17.684Z,2.57
2024-01-28T11:21:53.381Z,2.40
2024-01-28T11:24:22.777Z,2.40
2024-01-28T11:26:50.762Z,2.30
2024-01-28T11:29:20.010Z,2.57
2024-01-28T11:31:47.969Z,2.80
2024-01-28T11:34:17.024Z,2.13
2024-01-28T11:36:46.654Z,2.20
2024-01-28T11:39:16.583Z,2.23
2024-01-28T11:41:46.311Z,2.20
2024-01-28T11:44:14.726Z,2.37
2024-01-28T11:46:44.053Z,1.80
2024-01-28T11:49:13.474Z,1.83
2024-01-28T11:51:42.038Z,2.10
2024-01-28T11:54:10.055Z,1.90
2024-01-28T11:56:40.034Z,1.60
2024-01-28T11:59:09.350Z,1.77
2024-01-28T12:01:38.058Z,1.47
2024-01-28T12:04:09.930Z,1.50
2024-01-28T12:06:38.409Z,2.00
2024-01-28T12:09:06.806Z,1.70
2024-01-28T12:11:34.755Z,1.40
2024-01-28T12:14:05.082Z,1.63
2024-01-28T12:16:37.470Z,1.73
2024-01-28T12:19:09.505Z,1.60
2024-01-28T12:21:39.522Z,1.47
2024-01-28T12:24:10.828Z,1.67
2024-01-28T12:26:40.833Z,1.80
2024-01-28T12:29:09.902Z,1.90
2024-01-28T12:31:41.076Z,1.90
2024-01-28T12:34:17.362Z,1.77
2024-01-28T12:36:45.672Z,1.50
2024-01-28T12:39:13.740Z,1.90
2024-01-28T12:41:42.549Z,1.93
2024-01-28T12:44:10.746Z,1.90
2024-01-28T12:46:38.683Z,2.07
2024-01-28T12:49:10.450Z,2.00
2024-01-28T12:51:42.217Z,2.07
2024-01-28T12:54:10.732Z,1.63
2024-01-28T12:56:38.718Z,1.63
2024-01-28T12:59:07.179Z,1.70
2024-01-28T13:01:35.349Z,2.27
2024-01-28T13:04:03.651Z,1.63
2024-01-28T13:06:31.738Z,1.70
2024-01-28T13:09:01.059Z,1.83
2024-01-28T13:11:29.001Z,1.63
2024-01-28T13:13:57.127Z,1.70
2024-01-28T13:16:25.130Z,1.73
2024-01-28T13:18:53.153Z,1.80
2024-01-28T13:21:21.167Z,1.70
2024-01-28T13:23:49.165Z,1.97
2024-01-28T13:26:19.987Z,1.90
2024-01-28T13:28:48.040Z,2.60
2024-01-28T13:31:15.959Z,2.00
2024-01-28T13:33:44.041Z,1.80
2024-01-28T13:36:12.526Z,1.37
2024-01-28T13:38:43.211Z,1.93
2024-01-28T13:41:11.081Z,2.30
2024-01-28T13:43:40.332Z,1.60
2024-01-28T13:46:08.615Z,1.70
2024-01-28T13:48:36.684Z,1.80
2024-01-28T13:51:05.338Z,1.63
2024-01-28T13:53:35.672Z,1.40
2024-01-28T13:56:07.269Z,1.40
2024-01-28T13:58:35.806Z,2.03
2024-01-28T14:01:05.564Z,1.70
2024-01-28T14:03:34.164Z,1.93
2024-01-28T14:06:02.286Z,1.47
2024-01-28T14:08:30.324Z,1.67
2024-01-28T14:10:58.730Z,1.53
2024-01-28T14:13:26.733Z,1.40
2024-01-28T14:15:54.943Z,1.40
2024-01-28T14:18:26.462Z,1.50
2024-01-28T14:20:54.673Z,1.60
2024-01-28T14:23:22.674Z,1.80
2024-01-28T14:25:51.124Z,1.60
2024-01-28T14:28:23.413Z,1.60
2024-01-28T14:30:51.513Z,1.80
2024-01-28T14:33:19.700Z,2.40
2024-01-28T14:35:49.265Z,2.13
2024-01-28T14:38:17.304Z,3.77
2024-01-28T14:40:45.344Z,6.00
2024-01-28T14:43:13.304Z,4.57
2024-01-28T14:45:41.334Z,2.80
2024-01-28T14:48:09.807Z,3.23
2024-01-28T14:50:40.467Z,1.93
2024-01-28T14:53:09.945Z,2.87
2024-01-28T14:55:37.849Z,3.27
2024-01-28T14:58:05.921Z,2.73
2024-01-28T15:00:33.966Z,2.13
2024-01-28T15:03:01.947Z,2.10
2024-01-28T15:05:29.834Z,2.00
2024-01-28T15:07:57.914Z,1.90
2024-01-28T15:10:28.446Z,1.80
2024-01-28T15:12:56.501Z,1.40
2024-01-28T15:15:24.485Z,2.20
2024-01-28T15:17:52.918Z,2.13
2024-01-28T15:20:22.110Z,1.77
2024-01-28T15:22:53.089Z,1.73
2024-01-28T15:25:21.166Z,2.00
2024-01-28T15:27:50.457Z,1.50
2024-01-28T15:30:18.457Z,1.67
2024-01-28T15:32:48.417Z,2.30
2024-01-28T15:35:16.649Z,2.03
2024-01-28T15:37:44.628Z,1.60
2024-01-28T15:40:13.780Z,1.53
2024-01-28T15:42:42.320Z,1.30
2024-01-28T15:45:12.263Z,1.60
2024-01-28T15:47:40.317Z,1.60
2024-01-28T15:50:09.459Z,1.57
2024-01-28T15:52:37.377Z,1.90
2024-01-28T15:55:05.965Z,1.70
2024-01-28T15:57:34.115Z,1.63
2024-01-28T16:00:07.261Z,1.37
2024-01-28T16:02:37.669Z,1.70
2024-01-28T16:05:06.561Z,1.43
2024-01-28T16:07:34.896Z,1.43
2024-01-28T16:10:03.240Z,1.40
2024-01-28T16:12:31.344Z,1.33
2024-01-28T16:14:59.286Z,1.60
2024-01-28T16:17:27.823Z,1.73
2024-01-28T16:19:57.974Z,1.70
2024-01-28T16:22:26.530Z,1.70
2024-01-28T16:24:54.485Z,2.20
2024-01-28T16:27:22.539Z,2.10
2024-01-28T16:29:50.542Z,2.10
2024-01-28T16:32:18.913Z,2.40
2024-01-28T16:34:47.150Z,2.60
2024-01-28T16:37:18.481Z,2.43
2024-01-28T16:39:49.132Z,2.43
2024-01-28T16:42:17.356Z,2.53
2024-01-28T16:44:45.275Z,2.43
2024-01-28T16:47:14.710Z,2.40
2024-01-28T16:49:42.830Z,2.20
2024-01-28T16:52:10.919Z,2.50
2024-01-28T16:54:40.162Z,2.37
2024-01-28T16:57:08.196Z,2.30
2024-01-28T16:59:36.126Z,2.27
2024-01-28T17:02:04.081Z,2.80
2024-01-28T17:04:31.952Z,2.03
2024-01-28T17:06:59.986Z,2.10
2024-01-28T17:09:28.050Z,2.70
2024-01-28T17:11:57.437Z,2.70
2024-01-28T17:14:25.673Z,1.87
2024-01-28T17:16:53.670Z,3.13
2024-01-28T17:19:21.815Z,3.43
2024-01-28T17:21:49.874Z,2.40
2024-01-28T17:24:18.254Z,2.73
2024-01-28T17:26:46.177Z,2.13
2024-01-28T17:29:15.457Z,1.93
2024-01-28T17:31:43.475Z,2.23
2024-01-28T17:34:13.706Z,2.10
2024-01-28T17:36:41.927Z,2.43
2024-01-28T17:39:10.882Z,2.90
2024-01-28T17:41:39.674Z,1.90
2024-01-28T17:44:07.871Z,2.00
2024-01-28T17:46:37.547Z,2.13
2024-01-28T17:49:05.838Z,1.90
2024-01-28T17:51:33.877Z,2.50
2024-01-28T17:54:01.969Z,2.20
2024-01-28T17:56:30.108Z,2.47
2024-01-28T17:58:58.098Z,2.07
2024-01-28T18:01:25.291Z,2.17
2024-01-28T18:03:55.231Z,2.20
2024-01-28T18:06:23.297Z,2.50
2024-01-28T18:08:51.199Z,2.33
2024-01-28T18:11:19.464Z,2.33
2024-01-28T18:13:47.428Z,2.63
2024-01-28T18:16:15.606Z,2.47
2024-01-28T18:18:43.902Z,2.33
2024-01-28T18:21:13.489Z,2.73
2024-01-28T18:23:41.695Z,2.27
2024-01-28T18:26:10.082Z,1.83
2024-01-28T18:28:38.393Z,3.97
2024-01-28T18:31:06.856Z,3.77
2024-01-28T18:33:37.389Z,3.10
2024-01-28T18:36:06.743Z,3.20
2024-01-28T18:38:36.124Z,3.57
2024-01-28T18:41:05.994Z,4.67
2024-01-28T18:43:34.853Z,3.73
2024-01-28T18:46:03.753Z,4.17
2024-01-28T18:48:33.342Z,3.38
2024-01-28T18:51:01.442Z,3.87
2024-01-28T18:53:29.969Z,4.83
2024-01-28T18:55:59.460Z,3.30
2024-01-28T18:58:27.460Z,3.40
2024-01-28T19:00:55.598Z,2.10
2024-01-28T19:03:23.588Z,2.30
2024-01-28T19:05:51.606Z,2.17
2024-01-28T19:08:20.020Z,2.47
2024-01-28T19:10:48.037Z,2.50
2024-01-28T19:13:20.044Z,2.03
2024-01-28T19:15:49.062Z,2.50
2024-01-28T19:18:17.281Z,2.13
2024-01-28T19:20:45.818Z,2.33
2024-01-28T19:23:14.319Z,2.47
2024-01-28T19:25:42.689Z,2.00
2024-01-28T19:28:10.717Z,2.23
2024-01-28T19:30:40.060Z,2.10
2024-01-28T19:33:08.377Z,2.60
2024-01-28T19:35:40.637Z,2.00
2024-01-28T19:38:08.600Z,2.77
2024-01-28T19:40:36.593Z,2.17
2024-01-28T19:43:04.934Z,2.23
2024-01-28T19:45:32.924Z,2.37
2024-01-28T19:48:02.275Z,2.50
2024-01-28T19:50:30.724Z,2.30
2024-01-28T19:52:59.257Z,2.90
2024-01-28T19:55:27.265Z,2.70
2024-01-28T19:57:55.554Z,2.50
2024-01-28T20:00:23.932Z,2.67
2024-01-28T20:02:53.047Z,2.90
2024-01-28T20:05:22.718Z,2.50
2024-01-28T20:07:50.705Z,2.57
2024-01-28T20:10:18.975Z,2.33
2024-01-28T20:12:46.996Z,2.40
2024-01-28T20:15:15.114Z,2.33
2024-01-28T20:17:43.052Z,2.50
2024-01-28T20:20:14.234Z,2.17
2024-01-28T20:22:43.570Z,2.63
2024-01-28T20:25:11.592Z,2.40
2024-01-28T20:27:40.403Z,2.30
2024-01-28T20:30:09.477Z,2.00
2024-01-28T20:32:38.080Z,2.37
2024-01-28T20:35:11.999Z,2.37
2024-01-28T20:37:41.000Z,2.13
2024-01-28T20:40:11.101Z,2.13
2024-01-28T20:42:46.870Z,2.53
2024-01-28T20:45:15.472Z,2.40
2024-01-28T20:47:43.525Z,2.60
2024-01-28T20:50:11.632Z,1.90
2024-01-28T20:52:39.660Z,2.27
2024-01-28T20:55:10.031Z,2.60
2024-01-28T20:57:38.070Z,2.33
2024-01-28T21:00:07.560Z,2.83
2024-01-28T21:02:35.699Z,2.70
2024-01-28T21:05:04.276Z,2.80
2024-01-28T21:07:32.618Z,2.40
2024-01-28T21:10:00.735Z,2.70
2024-01-28T21:12:31.419Z,2.40
2024-01-28T21:14:59.650Z,2.13
2024-01-28T21:17:33.106Z,2.30
2024-01-28T21:20:01.592Z,2.70
2024-01-28T21:22:29.752Z,2.20
2024-01-28T21:24:57.772Z,2.10
2024-01-28T21:27:25.917Z,2.13
2024-01-28T21:29:55.313Z,2.80
2024-01-28T21:32:23.758Z,2.50
2024-01-28T21:34:51.778Z,2.33
2024-01-28T21:37:19.833Z,2.70
2024-01-28T21:39:47.884Z,2.30
2024-01-28T21:42:15.938Z,2.30
2024-01-28T21:44:43.995Z,2.20
2024-01-28T21:47:13.279Z,2.40
2024-01-28T21:49:41.341Z,3.88
2024-01-28T21:52:09.486Z,2.63
2024-01-28T21:54:37.658Z,2.73
2024-01-28T21:57:06.486Z,2.23
2024-01-28T21:59:34.558Z,2.40
2024-01-28T22:02:02.570Z,2.10
2024-01-28T22:04:31.954Z,2.30
2024-01-28T22:06:59.945Z,2.20
2024-01-28T22:09:28.123Z,1.90
2024-01-28T22:11:56.120Z,2.10
2024-01-28T22:14:24.167Z,1.77
2024-01-28T22:16:52.051Z,2.13
2024-01-28T22:19:20.057Z,1.90
2024-01-28T22:21:49.672Z,2.00
2024-01-28T22:24:17.676Z,2.60
2024-01-28T22:26:45.606Z,2.00
2024-01-28T22:29:13.654Z,2.47
2024-01-28T22:31:42.911Z,2.47
2024-01-28T22:34:11.415Z,2.50
2024-01-28T22:36:39.460Z,2.17
2024-01-28T22:39:11.183Z,2.40
2024-01-28T22:41:41.523Z,2.23
2024-01-28T22:44:09.545Z,1.90
2024-01-28T22:46:37.483Z,1.87
2024-01-28T22:49:05.562Z,1.77
2024-01-28T22:51:33.565Z,2.10
2024-01-28T22:54:01.659Z,1.90
2024-01-28T22:56:30.951Z,2.00
2024-01-28T22:58:58.917Z,1.90
2024-01-28T23:01:27.097Z,2.53
2024-01-28T23:03:55.303Z,2.20
2024-01-28T23:06:23.588Z,1.80
2024-01-28T23:08:51.548Z,2.37
2024-01-28T23:11:19.538Z,2.47
2024-01-28T23:13:48.788Z,2.20
2024-01-28T23:16:17.041Z,1.97
2024-01-28T23:18:45.288Z,1.87
2024-01-28T23:21:14.348Z,2.20
2024-01-28T23:23:42.477Z,2.00
2024-01-28T23:26:10.493Z,1.80
2024-01-28T23:28:38.426Z,2.40
2024-01-28T23:31:09.249Z,2.30
2024-01-28T23:33:37.483Z,2.07
2024-01-28T23:36:07.147Z,2.07
2024-01-28T23:38:35.208Z,1.90
2024-01-28T23:41:03.171Z,1.87
2024-01-28T23:43:31.752Z,1.83
2024-01-28T23:46:00.055Z,1.73
2024-01-28T23:48:29.363Z,1.90
2024-01-28T23:50:58.144Z,1.53
2024-01-28T23:53:26.030Z,1.60
2024-01-28T23:55:53.999Z,1.83
2024-01-28T23:58:21.925Z,1.73
